Time;durP1;ratioP1;P1;durP2;ratioP2;P2;SDS_P1;SDS_P2;PMS_P1;PMS_P2;Temp;Humidity;BMP_temperature;BMP_pressure;BME280_temperature;BME280_humidity;BME280_pressure;Samples;Min_cycle;Max_cycle;Signal;HPM_P1;HPM_P2
2022/03/07 00:02:06;;;;;;;8.77;6.43;;;-0.50;1.00;;;;;;5048207;28;20278;-65
2022/03/07 00:04:32;;;;;;;7.18;6.35;;;-0.50;1.00;;;;;;5045827;28;20202;-65
2022/03/07 00:06:57;;;;;;;7.70;7.00;;;-0.50;1.00;;;;;;5047475;28;20187;-65
2022/03/07 00:09:23;;;;;;;7.90;7.10;;;-0.50;1.00;;;;;;5031020;28;20171;-72
2022/03/07 00:11:49;;;;;;;7.63;6.90;;;-0.60;1.00;;;;;;5032938;28;20242;-65
2022/03/07 00:14:14;;;;;;;11.10;7.53;;;-0.50;1.00;;;;;;5031550;28;20175;-66
2022/03/07 00:16:40;;;;;;;12.30;8.20;;;-0.60;1.00;;;;;;5046944;28;20179;-65
2022/03/07 00:19:06;;;;;;;9.93;6.60;;;-0.60;1.00;;;;;;5051794;28;20250;-73
2022/03/07 00:21:32;;;;;;;7.97;7.07;;;-0.60;1.00;;;;;;5050636;28;20194;-65
2022/03/07 00:24:00;;;;;;;11.40;6.70;;;-0.60;1.00;;;;;;5051509;28;20273;-65
2022/03/07 00:26:26;;;;;;;10.68;6.95;;;-0.70;1.00;;;;;;5043459;28;20930;-65
2022/03/07 00:28:52;;;;;;;10.87;7.87;;;-0.80;1.00;;;;;;5055579;28;20216;-68
2022/03/07 00:31:20;;;;;;;10.20;7.37;;;-0.80;1.00;;;;;;5045713;28;20450;-66
2022/03/07 00:33:45;;;;;;;9.57;6.50;;;-0.80;1.00;;;;;;5036361;28;20456;-65
2022/03/07 00:36:11;;;;;;;12.00;6.77;;;-0.80;1.00;;;;;;5051785;28;20182;-66
2022/03/07 00:38:37;;;;;;;9.30;6.63;;;-0.80;1.00;;;;;;5042946;28;20175;-72
2022/03/07 00:41:03;;;;;;;8.67;6.77;;;-0.80;1.00;;;;;;5048053;28;20200;-65
2022/03/07 00:43:29;;;;;;;7.93;7.00;;;-0.80;1.00;;;;;;5036033;28;20446;-65
2022/03/07 00:45:55;;;;;;;6.18;5.65;;;-0.80;1.00;;;;;;5041725;28;20528;-72
2022/03/07 00:48:21;;;;;;;9.60;6.70;;;-0.80;1.00;;;;;;5042577;28;20183;-72
2022/03/07 00:50:48;;;;;;;11.70;6.20;;;-0.80;1.00;;;;;;5038733;28;20483;-66
2022/03/07 00:53:17;;;;;;;7.20;6.22;;;-0.90;1.00;;;;;;5046458;28;20414;-65
2022/03/07 00:55:44;;;;;;;7.68;5.95;;;-0.90;1.00;;;;;;5038503;28;20175;-65
2022/03/07 00:58:10;;;;;;;14.30;6.78;;;-0.90;1.00;;;;;;5054438;28;20221;-72
2022/03/07 01:00:37;;;;;;;8.70;6.13;;;-0.90;1.00;;;;;;5052748;28;20282;-66
2022/03/07 01:03:04;;;;;;;15.88;7.03;;;-0.90;1.00;;;;;;5044194;28;20191;-72
2022/03/07 01:05:30;;;;;;;7.50;6.70;;;-0.90;1.00;;;;;;5055699;28;20171;-72
2022/03/07 01:07:56;;;;;;;8.07;6.75;;;-1.00;1.00;;;;;;5048104;28;20221;-72
2022/03/07 01:10:22;;;;;;;12.00;5.80;;;-1.00;1.00;;;;;;5034427;28;20168;-68
2022/03/07 01:12:48;;;;;;;7.55;5.45;;;-1.00;1.00;;;;;;5052907;28;20445;-65
2022/03/07 01:15:14;;;;;;;6.60;5.77;;;-1.00;1.00;;;;;;5055478;28;20505;-72
2022/03/07 01:17:41;;;;;;;6.43;5.73;;;-1.00;1.00;;;;;;5039249;28;20175;-71
2022/03/07 01:20:08;;;;;;;6.93;6.18;;;-1.00;1.00;;;;;;5046796;28;20254;-64
2022/03/07 01:22:34;;;;;;;8.13;5.88;;;-1.10;1.00;;;;;;5035765;28;20202;-72
2022/03/07 01:25:00;;;;;;;11.40;7.30;;;-1.20;1.00;;;;;;5046105;28;20199;-70
2022/03/07 01:27:25;;;;;;;7.43;6.53;;;-1.20;1.00;;;;;;5055221;28;20436;-71
2022/03/07 01:29:58;;;;;;;10.97;6.77;;;-1.20;1.00;;;;;;5043935;28;20599;-65
2022/03/07 01:32:35;;;;;;;6.30;5.70;;;-1.20;1.00;;;;;;5036829;28;20241;-64
2022/03/07 01:35:02;;;;;;;6.03;5.50;;;-1.20;1.00;;;;;;5054571;28;20192;-71
2022/03/07 01:37:31;;;;;;;7.35;5.43;;;-1.20;1.00;;;;;;5051202;28;20658;-65
2022/03/07 01:39:56;;;;;;;6.25;5.60;;;-1.20;1.00;;;;;;5033993;28;20258;-66
2022/03/07 01:42:22;;;;;;;5.47;4.97;;;-1.20;1.00;;;;;;5048214;28;20722;-66
2022/03/07 01:44:48;;;;;;;7.80;6.30;;;-1.20;1.00;;;;;;5054773;28;20198;-69
2022/03/07 01:47:14;;;;;;;8.10;6.07;;;-1.20;1.00;;;;;;5052872;28;20844;-70
2022/03/07 01:49:40;;;;;;;6.53;5.90;;;-1.20;1.00;;;;;;5053594;28;20167;-71
2022/03/07 01:52:07;;;;;;;10.83;5.90;;;-1.20;1.00;;;;;;5042263;28;20601;-65
2022/03/07 01:54:33;;;;;;;7.55;6.57;;;-1.20;1.00;;;;;;5040967;28;20413;-65
2022/03/07 01:56:58;;;;;;;13.10;6.68;;;-1.20;1.00;;;;;;5041974;28;20179;-66
2022/03/07 01:59:27;;;;;;;10.13;6.23;;;-1.20;1.00;;;;;;5033787;28;20182;-72
2022/03/07 02:01:54;;;;;;;9.23;6.57;;;-1.20;1.00;;;;;;5035532;28;20195;-71
2022/03/07 02:04:21;;;;;;;8.45;7.72;;;-1.20;1.00;;;;;;5038287;28;20206;-67
2022/03/07 02:06:48;;;;;;;6.45;5.82;;;-1.10;1.00;;;;;;5053941;28;20213;-72
2022/03/07 02:09:15;;;;;;;7.03;6.40;;;-1.20;1.00;;;;;;5050529;28;20578;-64
2022/03/07 02:11:41;;;;;;;7.90;7.20;;;-1.20;1.00;;;;;;5046009;28;20187;-64
2022/03/07 02:14:23;;;;;;;13.40;6.47;;;-1.20;1.00;;;;;;5053117;28;20181;-65
2022/03/07 02:16:49;;;;;;;9.52;6.72;;;-1.20;1.00;;;;;;5034483;28;20641;-71
2022/03/07 02:19:16;;;;;;;10.18;6.10;;;-1.20;1.00;;;;;;5034874;28;20251;-68
2022/03/07 02:21:51;;;;;;;13.18;6.65;;;-1.20;1.00;;;;;;5053645;28;20203;-71
2022/03/07 02:24:18;;;;;;;6.97;6.10;;;-1.20;1.00;;;;;;5052499;28;20202;-65
2022/03/07 02:26:56;;;;;;;7.45;6.75;;;-1.20;1.00;;;;;;5053627;28;20159;-72
2022/03/07 02:29:22;;;;;;;7.10;6.32;;;-1.30;1.00;;;;;;5046926;28;20178;-72
2022/03/07 02:31:47;;;;;;;7.70;6.47;;;-1.20;1.00;;;;;;5033979;28;20556;-65
2022/03/07 02:34:13;;;;;;;6.80;6.10;;;-1.20;1.00;;;;;;5036917;28;20253;-71
2022/03/07 02:36:39;;;;;;;8.45;6.75;;;-1.30;1.00;;;;;;5052190;28;20712;-65
2022/03/07 02:39:05;;;;;;;11.33;6.40;;;-1.30;1.00;;;;;;5036202;28;20270;-72
2022/03/07 02:41:31;;;;;;;9.45;6.32;;;-1.30;1.00;;;;;;5039507;28;20564;-66
2022/03/07 02:43:57;;;;;;;10.60;7.83;;;-1.40;1.00;;;;;;5050292;28;20194;-66
2022/03/07 02:46:22;;;;;;;6.30;5.67;;;-1.40;1.00;;;;;;5048113;28;20179;-71
2022/03/07 02:48:48;;;;;;;8.97;7.10;;;-1.40;1.00;;;;;;5032010;28;20160;-65
2022/03/07 02:51:14;;;;;;;7.23;6.53;;;-1.40;1.00;;;;;;5038149;28;20202;-72
2022/03/07 02:53:40;;;;;;;8.20;5.30;;;-1.40;1.00;;;;;;5040677;28;20508;-65
2022/03/07 02:56:06;;;;;;;10.70;5.20;;;-1.40;1.00;;;;;;5036900;28;20259;-71
2022/03/07 02:58:31;;;;;;;9.90;5.80;;;-1.40;1.00;;;;;;5051322;28;20571;-66
2022/03/07 03:00:57;;;;;;;10.60;6.07;;;-1.40;1.00;;;;;;5048895;28;20591;-72
2022/03/07 03:03:23;;;;;;;7.13;6.43;;;-1.40;1.00;;;;;;5037746;28;20187;-66
2022/03/07 03:05:48;;;;;;;6.43;5.23;;;-1.50;1.00;;;;;;5038965;28;20183;-70
2022/03/07 03:08:14;;;;;;;11.67;6.40;;;-1.50;1.00;;;;;;5051629;28;20501;-72
2022/03/07 03:10:40;;;;;;;8.70;6.03;;;-1.50;1.00;;;;;;5032312;28;20181;-71
2022/03/07 03:13:06;;;;;;;7.13;5.87;;;-1.60;1.00;;;;;;5050396;28;20240;-71
2022/03/07 03:15:31;;;;;;;7.37;6.23;;;-1.60;1.00;;;;;;5032320;28;20581;-71
2022/03/07 03:17:57;;;;;;;7.07;6.27;;;-1.60;1.00;;;;;;5049333;28;20571;-65
2022/03/07 03:20:23;;;;;;;6.53;5.80;;;-1.70;1.00;;;;;;5052341;28;20777;-64
2022/03/07 03:22:48;;;;;;;7.97;7.33;;;-1.60;1.00;;;;;;5034924;28;20533;-65
2022/03/07 03:25:15;;;;;;;9.03;6.03;;;-1.60;1.00;;;;;;5033259;28;20695;-71
2022/03/07 03:27:42;;;;;;;8.52;5.00;;;-1.60;1.00;;;;;;5033980;28;20521;-70
2022/03/07 03:31:03;;;;;;;11.95;6.30;;;-1.60;1.00;;;;;;5032349;28;20167;-70
2022/03/07 03:33:29;;;;;;;7.68;5.32;;;-1.60;1.00;;;;;;5026961;28;20191;-65
2022/03/07 03:35:55;;;;;;;7.55;6.65;;;-1.60;1.00;;;;;;5042242;28;20230;-72
2022/03/07 03:38:20;;;;;;;9.70;6.73;;;-1.70;1.00;;;;;;5053129;28;20531;-72
2022/03/07 03:40:46;;;;;;;8.37;6.27;;;-1.70;1.00;;;;;;5045000;28;20760;-65
2022/03/07 03:43:12;;;;;;;6.60;6.10;;;-1.70;1.00;;;;;;5033002;28;20714;-71
2022/03/07 03:45:38;;;;;;;7.53;6.13;;;-1.60;1.00;;;;;;5049728;28;20505;-70
2022/03/07 03:48:04;;;;;;;7.23;6.40;;;-1.70;1.00;;;;;;5052865;28;20412;-71
2022/03/07 03:50:30;;;;;;;7.10;6.07;;;-1.60;1.00;;;;;;5036565;28;20188;-67
2022/03/07 03:52:56;;;;;;;5.87;5.47;;;-1.60;1.00;;;;;;5033989;28;20209;-70
2022/03/07 03:55:22;;;;;;;6.60;5.40;;;-1.60;1.00;;;;;;5045906;28;20416;-65
2022/03/07 03:57:47;;;;;;;7.10;6.38;;;-1.60;1.00;;;;;;5035304;28;20645;-72
2022/03/07 04:00:16;;;;;;;6.67;5.97;;;-1.60;1.00;;;;;;5044035;28;20225;-64
2022/03/07 04:02:42;;;;;;;6.63;5.47;;;-1.60;1.00;;;;;;5054996;28;20233;-71
2022/03/07 04:05:10;;;;;;;6.78;5.50;;;-1.60;1.00;;;;;;5045760;28;20190;-71
2022/03/07 04:07:36;;;;;;;9.60;5.03;;;-1.60;1.00;;;;;;5040041;28;20167;-66
2022/03/07 04:10:03;;;;;;;5.13;4.65;;;-1.60;1.00;;;;;;5046043;28;20577;-65
2022/03/07 04:12:28;;;;;;;11.45;5.57;;;-1.60;1.00;;;;;;5034828;28;20227;-64
2022/03/07 04:14:54;;;;;;;11.00;5.17;;;-1.70;1.00;;;;;;5044149;28;20183;-70
2022/03/07 04:17:23;;;;;;;7.37;6.67;;;-1.70;1.00;;;;;;5055142;28;20183;-65
2022/03/07 04:19:49;;;;;;;6.60;5.40;;;-1.70;1.00;;;;;;5049044;28;20180;-65
2022/03/07 04:22:15;;;;;;;6.70;6.10;;;-1.70;1.00;;;;;;5035023;28;20210;-72
2022/03/07 04:24:41;;;;;;;7.53;6.80;;;-1.70;1.00;;;;;;5037902;28;20192;-65
2022/03/07 04:27:07;;;;;;;6.13;5.53;;;-1.70;1.00;;;;;;5038388;28;20651;-72
2022/03/07 04:29:57;;;;;;;6.33;5.17;;;-1.70;1.00;;;;;;5055005;28;20163;-65
2022/03/07 04:32:23;;;;;;;12.45;4.93;;;-1.70;1.00;;;;;;5038229;28;20449;-65
2022/03/07 04:34:49;;;;;;;6.22;5.50;;;-1.80;1.00;;;;;;5035149;28;20176;-69
2022/03/07 04:37:15;;;;;;;4.80;4.40;;;-1.80;1.00;;;;;;5055707;28;20201;-65
2022/03/07 04:39:41;;;;;;;8.45;5.50;;;-1.70;1.00;;;;;;5037928;28;20179;-71
2022/03/07 04:42:06;;;;;;;5.90;5.40;;;-1.70;1.00;;;;;;5036057;28;20211;-65
2022/03/07 04:44:32;;;;;;;7.20;6.53;;;-1.70;1.00;;;;;;5035979;28;20199;-70
2022/03/07 04:46:58;;;;;;;6.83;5.23;;;-1.80;1.00;;;;;;5044336;28;20174;-70
2022/03/07 04:49:24;;;;;;;5.13;4.63;;;-1.90;1.00;;;;;;5048442;28;20218;-65
2022/03/07 04:51:50;;;;;;;5.70;5.30;;;-1.90;1.00;;;;;;5035657;28;20698;-71
2022/03/07 04:54:16;;;;;;;5.90;5.40;;;-1.90;1.00;;;;;;5038902;28;20425;-66
2022/03/07 04:56:47;;;;;;;5.55;5.15;;;-1.90;1.00;;;;;;5047448;28;20422;-71
2022/03/07 04:59:14;;;;;;;7.03;6.43;;;-1.90;1.00;;;;;;5037029;28;20193;-72
2022/03/07 05:01:40;;;;;;;6.30;5.20;;;-1.80;1.00;;;;;;5046796;28;20191;-65
2022/03/07 05:04:06;;;;;;;4.40;4.00;;;-1.80;1.00;;;;;;5035208;28;20194;-65
2022/03/07 05:06:32;;;;;;;6.40;4.73;;;-1.80;1.00;;;;;;5042026;28;20258;-65
2022/03/07 05:08:58;;;;;;;8.57;4.73;;;-1.80;1.00;;;;;;5054697;28;20181;-71
2022/03/07 05:11:24;;;;;;;6.80;4.20;;;-1.80;1.00;;;;;;5051752;28;20494;-65
2022/03/07 05:13:49;;;;;;;5.43;4.10;;;-1.80;1.00;;;;;;5053097;28;20190;-65
2022/03/07 05:16:15;;;;;;;4.90;4.50;;;-1.70;1.00;;;;;;5035440;28;20430;-71
2022/03/07 05:18:41;;;;;;;6.83;5.23;;;-1.80;1.00;;;;;;5043684;28;20270;-72
2022/03/07 05:21:06;;;;;;;7.57;4.53;;;-1.80;1.00;;;;;;5050741;28;20202;-65
2022/03/07 05:23:33;;;;;;;4.93;4.50;;;-1.80;1.00;;;;;;5035343;28;20257;-64
2022/03/07 05:25:59;;;;;;;4.57;4.05;;;-1.80;1.00;;;;;;5037247;28;20219;-70
2022/03/07 05:28:24;;;;;;;5.43;4.93;;;-1.90;1.00;;;;;;5055120;28;20179;-71
2022/03/07 05:31:12;;;;;;;6.00;4.93;;;-1.80;1.00;;;;;;5049630;28;20414;-65
2022/03/07 05:33:44;;;;;;;4.90;4.40;;;-1.90;1.00;;;;;;5035000;28;20640;-64
2022/03/07 05:36:10;;;;;;;5.65;4.82;;;-1.90;1.00;;;;;;5036159;28;20651;-71
2022/03/07 05:38:36;;;;;;;5.80;4.43;;;-1.90;1.00;;;;;;5033606;28;20171;-71
2022/03/07 05:41:02;;;;;;;6.43;5.20;;;-1.90;1.00;;;;;;5037877;28;20444;-65
2022/03/07 05:43:27;;;;;;;4.53;4.13;;;-1.90;1.00;;;;;;5054885;28;20198;-65
2022/03/07 05:45:53;;;;;;;5.20;4.70;;;-1.90;1.00;;;;;;5053083;28;20170;-71
2022/03/07 05:48:19;;;;;;;4.30;3.90;;;-1.80;1.00;;;;;;5051875;28;20642;-71
2022/03/07 05:50:45;;;;;;;5.20;4.70;;;-1.80;1.00;;;;;;5032673;28;20258;-73
2022/03/07 05:53:32;;;;;;;6.90;5.72;;;-1.80;1.00;;;;;;5035099;28;20194;-73
2022/03/07 05:55:57;;;;;;;10.43;5.60;;;-1.80;1.00;;;;;;5034861;28;20508;-66
2022/03/07 05:58:23;;;;;;;7.33;6.23;;;-1.80;1.00;;;;;;5054311;28;20206;-65
2022/03/07 06:00:49;;;;;;;5.50;4.67;;;-1.80;1.00;;;;;;5033013;28;20253;-65
2022/03/07 06:03:14;;;;;;;7.43;5.33;;;-1.90;1.00;;;;;;5033275;28;20461;-65
2022/03/07 06:05:40;;;;;;;3.70;3.50;;;-2.00;1.00;;;;;;5051166;28;20232;-70
2022/03/07 06:08:06;;;;;;;6.60;6.10;;;-1.90;1.00;;;;;;5052748;28;20209;-71
2022/03/07 06:10:32;;;;;;;5.80;5.37;;;-1.90;1.00;;;;;;5037007;28;20425;-69
2022/03/07 06:12:58;;;;;;;6.70;4.90;;;-1.90;1.00;;;;;;5049046;28;20985;-64
2022/03/07 06:15:24;;;;;;;5.40;4.90;;;-1.90;1.00;;;;;;5033987;28;20203;-64
2022/03/07 06:17:52;;;;;;;6.97;6.10;;;-1.80;1.00;;;;;;5034286;28;20780;-65
2022/03/07 06:20:19;;;;;;;5.82;5.13;;;-1.80;1.00;;;;;;5043521;28;20635;-70
2022/03/07 06:22:44;;;;;;;9.27;5.00;;;-1.80;1.00;;;;;;5036372;28;20196;-64
2022/03/07 06:25:10;;;;;;;8.63;5.10;;;-1.80;1.00;;;;;;5042584;28;20277;-66
2022/03/07 06:27:36;;;;;;;11.63;5.10;;;-1.80;1.00;;;;;;5032784;28;20266;-69
2022/03/07 06:30:02;;;;;;;4.70;4.37;;;-1.80;1.00;;;;;;5048023;28;20183;-69
2022/03/07 06:32:28;;;;;;;5.38;4.68;;;-1.80;1.00;;;;;;5051814;28;20213;-68
2022/03/07 06:34:54;;;;;;;10.57;7.40;;;-1.70;1.00;;;;;;5051395;28;20179;-65
2022/03/07 06:37:20;;;;;;;6.60;5.90;;;-1.70;1.00;;;;;;5032745;28;20502;-70
2022/03/07 06:39:46;;;;;;;13.25;11.35;;;-1.70;1.00;;;;;;5042819;28;20424;-64
2022/03/07 06:42:12;;;;;;;10.33;9.27;;;-1.70;1.00;;;;;;5050631;28;20206;-70
2022/03/07 06:44:39;;;;;;;7.97;6.83;;;-1.70;1.00;;;;;;5044556;28;20446;-64
2022/03/07 06:47:08;;;;;;;10.43;7.97;;;-1.70;1.00;;;;;;5041511;28;20260;-71
2022/03/07 06:49:35;;;;;;;6.22;5.18;;;-1.70;1.00;;;;;;5052339;28;20171;-65
2022/03/07 06:52:02;;;;;;;9.60;7.78;;;-1.60;1.00;;;;;;5051410;28;20213;-64
2022/03/07 06:54:28;;;;;;;15.32;11.10;;;-1.60;1.00;;;;;;5053627;28;20175;-63
2022/03/07 06:56:54;;;;;;;9.18;8.25;;;-1.50;1.00;;;;;;5053401;28;20190;-64
2022/03/07 06:59:20;;;;;;;7.40;5.97;;;-1.50;1.00;;;;;;5052447;28;20187;-65
2022/03/07 07:01:45;;;;;;;11.13;8.13;;;-1.50;1.00;;;;;;5053380;28;20677;-70
2022/03/07 07:04:11;;;;;;;12.17;6.20;;;-1.40;1.00;;;;;;5053383;28;20277;-65
2022/03/07 07:06:37;;;;;;;9.20;7.20;;;-1.40;1.00;;;;;;5052994;28;20236;-64
2022/03/07 07:09:03;;;;;;;11.33;6.20;;;-1.30;1.00;;;;;;5034911;28;20509;-70
2022/03/07 07:11:29;;;;;;;5.82;5.13;;;-1.30;1.00;;;;;;5033264;28;20207;-64
2022/03/07 07:13:55;;;;;;;6.30;5.70;;;-1.30;1.00;;;;;;5033653;28;20674;-65
2022/03/07 07:16:20;;;;;;;6.60;5.80;;;-1.20;1.00;;;;;;5032345;28;20182;-70
2022/03/07 07:18:46;;;;;;;7.33;6.80;;;-1.10;1.00;;;;;;5032512;28;20251;-69
2022/03/07 07:21:12;;;;;;;6.80;5.60;;;-1.10;1.00;;;;;;5033220;28;20422;-65
2022/03/07 07:23:37;;;;;;;7.10;5.40;;;-1.00;1.00;;;;;;5035900;28;20212;-70
2022/03/07 07:26:04;;;;;;;5.40;5.00;;;-1.00;1.00;;;;;;5052696;28;20199;-65
2022/03/07 07:28:30;;;;;;;7.43;6.00;;;-0.90;1.00;;;;;;5052636;28;20167;-72
2022/03/07 07:30:56;;;;;;;6.83;5.77;;;-0.80;1.00;;;;;;5053203;28;20198;-65
2022/03/07 07:33:21;;;;;;;5.40;4.97;;;-0.70;1.00;;;;;;5053156;28;20369;-66
2022/03/07 07:35:47;;;;;;;6.30;5.80;;;-0.70;1.00;;;;;;5053292;28;20213;-71
2022/03/07 07:38:13;;;;;;;9.63;7.33;;;-0.60;1.00;;;;;;5051619;28;20198;-64
2022/03/07 07:40:39;;;;;;;6.43;5.83;;;-0.50;1.00;;;;;;5036241;28;20175;-70
2022/03/07 07:43:05;;;;;;;9.70;6.50;;;-0.40;1.00;;;;;;5037111;28;20172;-71
2022/03/07 07:45:31;;;;;;;6.47;5.83;;;-0.40;1.00;;;;;;5036534;28;20297;-65
2022/03/07 07:47:58;;;;;;;7.55;6.78;;;-0.20;1.00;;;;;;5035933;28;20175;-71
2022/03/07 07:50:24;;;;;;;9.38;6.28;;;-0.20;1.00;;;;;;5036091;28;20550;-71
2022/03/07 07:52:50;;;;;;;6.53;5.93;;;0.00;1.00;;;;;;5036962;28;20191;-65
2022/03/07 07:55:15;;;;;;;6.80;5.80;;;0.00;1.00;;;;;;5037760;28;20180;-65
2022/03/07 07:57:41;;;;;;;5.93;5.47;;;0.10;1.00;;;;;;5036623;28;20183;-70
2022/03/07 08:00:09;;;;;;;10.83;5.67;;;0.30;1.00;;;;;;5035920;28;20174;-71
2022/03/07 08:02:35;;;;;;;6.78;5.70;;;0.30;1.00;;;;;;5036750;28;20425;-71
2022/03/07 08:05:01;;;;;;;6.32;5.75;;;0.40;1.00;;;;;;5036174;28;20206;-65
2022/03/07 08:07:27;;;;;;;7.53;6.70;;;0.60;1.00;;;;;;5036633;28;20172;-70
2022/03/07 08:09:53;;;;;;;7.13;6.00;;;0.70;1.00;;;;;;5038539;28;20229;-65
2022/03/07 08:12:18;;;;;;;8.20;6.30;;;0.80;1.00;;;;;;5037994;28;20429;-72
2022/03/07 08:14:44;;;;;;;8.83;7.37;;;0.90;1.00;;;;;;5035323;28;20179;-72
2022/03/07 08:17:11;;;;;;;6.20;5.60;;;1.10;1.00;;;;;;5052871;28;20220;-66
2022/03/07 08:19:37;;;;;;;7.90;6.60;;;1.30;1.00;;;;;;5049669;28;20410;-72
2022/03/07 08:22:03;;;;;;;9.03;7.17;;;1.40;1.00;;;;;;5035695;28;20426;-66
2022/03/07 08:24:29;;;;;;;8.93;6.90;;;1.50;1.00;;;;;;5039178;28;20454;-71
2022/03/07 08:26:55;;;;;;;7.10;6.50;;;1.70;1.00;;;;;;5036337;28;20406;-73
2022/03/07 08:29:20;;;;;;;9.20;6.67;;;1.90;1.00;;;;;;5035895;28;20167;-66
2022/03/07 08:31:46;;;;;;;8.07;7.27;;;2.00;1.00;;;;;;5056142;28;20190;-73
2022/03/07 08:34:11;;;;;;;10.57;7.10;;;2.30;1.00;;;;;;5055720;28;20323;-67
2022/03/07 08:36:37;;;;;;;10.87;6.87;;;2.40;5.80;;;;;;5043254;28;20644;-67
2022/03/07 08:39:03;;;;;;;12.20;7.47;;;2.60;12.80;;;;;;5054698;28;20175;-65
2022/03/07 08:41:29;;;;;;;7.40;6.70;;;2.80;17.90;;;;;;5037232;28;20200;-66
2022/03/07 08:43:55;;;;;;;8.93;7.97;;;3.00;27.10;;;;;;5035727;28;20489;-71
2022/03/07 08:46:21;;;;;;;7.93;6.90;;;3.20;27.20;;;;;;5050579;28;20608;-66
2022/03/07 08:48:47;;;;;;;11.83;6.60;;;3.40;27.30;;;;;;5054882;28;20478;-65
2022/03/07 08:51:12;;;;;;;8.53;7.70;;;3.60;27.50;;;;;;5041415;28;20915;-66
2022/03/07 08:53:38;;;;;;;17.83;8.33;;;3.90;27.80;;;;;;5035567;28;20217;-63
2022/03/07 08:56:05;;;;;;;13.10;8.30;;;4.10;27.90;;;;;;5054470;28;20731;-63
2022/03/07 08:58:31;;;;;;;12.40;9.57;;;4.30;28.10;;;;;;5054596;28;20496;-70
2022/03/07 09:00:56;;;;;;;10.93;8.37;;;4.50;20.60;;;;;;5040981;28;20459;-63
2022/03/07 09:03:22;;;;;;;12.30;7.60;;;4.60;9.80;;;;;;5050439;28;20207;-63
2022/03/07 09:05:47;;;;;;;8.03;6.93;;;4.70;1.00;;;;;;5035869;28;20189;-64
2022/03/07 09:08:13;;;;;;;7.27;6.57;;;4.80;1.00;;;;;;5035124;28;20171;-62
2022/03/07 09:10:39;;;;;;;10.47;7.57;;;5.00;1.00;;;;;;5044159;28;20179;-65
2022/03/07 09:13:05;;;;;;;6.13;5.60;;;5.20;1.00;;;;;;5054292;28;20190;-69
2022/03/07 09:15:30;;;;;;;6.63;5.50;;;5.30;1.00;;;;;;5044095;28;20229;-67
2022/03/07 09:17:56;;;;;;;8.30;5.47;;;5.40;1.00;;;;;;5041318;28;20175;-71
2022/03/07 09:20:22;;;;;;;6.70;5.70;;;5.70;1.00;;;;;;5036388;28;20541;-68
2022/03/07 09:22:47;;;;;;;8.67;5.80;;;6.10;1.00;;;;;;5035316;28;20223;-66
2022/03/07 09:25:14;;;;;;;5.70;4.90;;;6.60;1.00;;;;;;5049127;28;20210;-72
2022/03/07 09:27:42;;;;;;;8.73;5.00;;;7.10;1.00;;;;;;5055427;28;20754;-69
2022/03/07 09:30:09;;;;;;;7.83;5.87;;;7.40;1.00;;;;;;5039832;28;20431;-65
2022/03/07 09:32:35;;;;;;;7.63;5.17;;;7.70;1.00;;;;;;5035051;28;20945;-74
2022/03/07 09:35:01;;;;;;;6.43;5.00;;;7.90;1.00;;;;;;5035340;28;20906;-74
2022/03/07 09:37:27;;;;;;;5.10;4.60;;;8.00;1.00;;;;;;5036644;28;20426;-73
2022/03/07 09:39:53;;;;;;;8.03;5.17;;;8.10;1.00;;;;;;5052702;28;20778;-73
2022/03/07 09:42:18;;;;;;;5.50;4.53;;;8.30;1.00;;;;;;5053844;28;20652;-70
2022/03/07 09:44:44;;;;;;;8.50;4.87;;;8.60;1.00;;;;;;5053804;28;20207;-65
2022/03/07 09:47:10;;;;;;;5.10;4.57;;;8.90;1.00;;;;;;5054939;28;20179;-66
2022/03/07 09:49:35;;;;;;;4.50;4.20;;;8.90;1.00;;;;;;5046842;28;20184;-74
2022/03/07 09:52:02;;;;;;;4.67;4.20;;;8.90;1.00;;;;;;5043605;28;20216;-66
2022/03/07 09:54:28;;;;;;;5.00;4.60;;;9.00;1.00;;;;;;5034327;28;20636;-66
2022/03/07 09:56:55;;;;;;;5.57;4.80;;;9.20;1.00;;;;;;5042537;28;20429;-74
2022/03/07 09:59:22;;;;;;;4.67;4.27;;;9.50;1.00;;;;;;5050885;28;20187;-73
2022/03/07 10:02:14;;;;;;;4.87;4.40;;;9.70;1.00;;;;;;5053291;28;20456;-65
2022/03/07 10:04:43;;;;;;;4.00;3.70;;;10.00;1.00;;;;;;5050743;28;20500;-66
2022/03/07 10:07:09;;;;;;;5.60;4.60;;;10.00;1.00;;;;;;5052779;28;20963;-66
2022/03/07 10:09:34;;;;;;;5.97;4.33;;;9.80;1.00;;;;;;5046489;28;20415;-72
2022/03/07 10:12:00;;;;;;;8.03;4.10;;;9.40;1.00;;;;;;5032659;28;20451;-74
2022/03/07 10:14:32;;;;;;;3.50;3.20;;;8.90;99.90;;;;;;5040472;28;20189;-72
2022/03/07 10:16:58;;;;;;;2.83;2.63;;;8.60;99.90;;;;;;5054181;28;20175;-66
2022/03/07 10:19:23;;;;;;;6.23;3.10;;;8.60;99.90;;;;;;5051448;28;20430;-65
2022/03/07 10:21:52;;;;;;;3.83;3.50;;;9.00;99.90;;;;;;5053957;28;20192;-66
2022/03/07 10:24:18;;;;;;;5.40;2.80;;;9.60;99.90;;;;;;5048259;28;20199;-74
2022/03/07 10:26:45;;;;;;;3.40;2.97;;;10.20;99.90;;;;;;5034048;28;20411;-66
2022/03/07 10:29:11;;;;;;;2.90;2.70;;;10.60;99.90;;;;;;5039894;28;20876;-74
2022/03/07 10:31:39;;;;;;;2.20;2.10;;;11.20;99.90;;;;;;5053760;28;20449;-74
2022/03/07 10:34:07;;;;;;;2.90;2.70;;;11.50;99.90;;;;;;5047585;28;20422;-65
2022/03/07 10:36:41;;;;;;;2.20;2.10;;;11.90;99.90;;;;;;5045411;28;20424;-66
2022/03/07 10:39:09;;;;;;;3.10;2.77;;;12.20;99.90;;;;;;5046876;28;20422;-74
2022/03/07 10:41:45;;;;;;;3.27;2.97;;;12.40;99.90;;;;;;5033880;28;20430;-66
2022/03/07 10:44:32;;;;;;;4.20;3.07;;;12.70;99.90;;;;;;5039350;28;20493;-67
2022/03/07 10:47:20;;;;;;;4.50;3.07;;;12.70;99.90;;;;;;5053381;28;20458;-66
2022/03/07 10:49:51;;;;;;;3.80;2.40;;;13.00;99.90;;;;;;5050934;28;20466;-66
2022/03/07 10:52:17;;;;;;;2.97;2.70;;;13.10;99.90;;;;;;5045539;28;20412;-74
2022/03/07 10:54:43;;;;;;;3.07;2.87;;;13.10;99.90;;;;;;5044577;28;20414;-70
2022/03/07 10:57:09;;;;;;;4.37;3.10;;;13.10;99.90;;;;;;5053581;28;20898;-70
2022/03/07 10:59:36;;;;;;;2.97;2.43;;;13.10;99.90;;;;;;5043466;28;20640;-65
2022/03/07 11:02:09;;;;;;;5.60;3.40;;;12.80;99.90;;;;;;5033562;28;20786;-73
2022/03/07 11:04:37;;;;;;;2.77;2.57;;;12.90;99.90;;;;;;5034208;28;20432;-66
2022/03/07 11:07:03;;;;;;;2.80;2.60;;;12.70;99.90;;;;;;5033419;28;20398;-65
2022/03/07 11:09:29;;;;;;;3.83;2.63;;;12.30;99.90;;;;;;5043643;28;20438;-65
2022/03/07 11:11:55;;;;;;;3.10;2.90;;;11.90;99.90;;;;;;5053026;28;20421;-73
2022/03/07 11:14:22;;;;;;;2.60;2.23;;;11.20;99.90;;;;;;5044081;28;20183;-73
2022/03/07 11:16:51;;;;;;;2.20;2.10;;;10.80;99.90;;;;;;5033634;28;20183;-72
2022/03/07 11:19:21;;;;;;;3.17;2.50;;;10.40;99.90;;;;;;5035183;28;20962;-66
2022/03/07 11:21:52;;;;;;;2.87;2.50;;;10.00;99.90;;;;;;5032935;28;20542;-73
2022/03/07 11:24:20;;;;;;;2.70;2.33;;;9.80;99.90;;;;;;5040229;28;20892;-65
2022/03/07 11:26:46;;;;;;;2.43;2.20;;;9.60;99.90;;;;;;5051532;28;20769;-66
2022/03/07 11:29:12;;;;;;;3.20;2.30;;;9.50;99.90;;;;;;5040238;28;20425;-66
2022/03/07 11:31:39;;;;;;;2.10;1.90;;;9.40;99.90;;;;;;5033320;28;20885;-72
2022/03/07 11:34:09;;;;;;;2.33;2.13;;;9.50;99.90;;;;;;5043060;28;20174;-66
2022/03/07 11:36:41;;;;;;;2.30;2.10;;;9.60;99.90;;;;;;5053279;28;20400;-66
2022/03/07 11:39:08;;;;;;;2.63;2.43;;;9.60;99.90;;;;;;5042215;28;20421;-73
2022/03/07 11:41:39;;;;;;;3.90;2.60;;;9.60;99.90;;;;;;5032682;28;20953;-72
2022/03/07 11:44:11;;;;;;;2.00;1.90;;;9.60;99.90;;;;;;5038794;28;20921;-73
2022/03/07 11:46:51;;;;;;;3.67;2.60;;;9.80;99.90;;;;;;5033116;28;20485;-73
2022/03/07 11:49:26;;;;;;;4.00;2.50;;;10.00;99.90;;;;;;5045429;28;20914;-74
2022/03/07 11:52:00;;;;;;;2.53;2.33;;;10.00;99.90;;;;;;5042282;28;20457;-73
2022/03/07 11:54:26;;;;;;;4.93;2.53;;;10.10;99.90;;;;;;5033057;28;20755;-66
2022/03/07 11:56:52;;;;;;;3.43;2.40;;;10.20;99.90;;;;;;5041940;28;20432;-65
2022/03/07 11:59:29;;;;;;;3.23;2.40;;;10.40;99.90;;;;;;5050152;28;20402;-66
2022/03/07 12:01:55;;;;;;;2.80;2.60;;;10.50;99.90;;;;;;5043379;28;20603;-66
2022/03/07 12:04:21;;;;;;;2.33;1.97;;;10.60;99.90;;;;;;5033091;28;20424;-74
2022/03/07 12:06:52;;;;;;;2.40;2.20;;;10.40;99.90;;;;;;5040360;28;20225;-73
2022/03/07 12:09:32;;;;;;;2.30;2.10;;;10.30;99.90;;;;;;5051809;28;20903;-74
2022/03/07 12:12:08;;;;;;;3.17;2.30;;;10.20;99.90;;;;;;5044196;28;20457;-66
2022/03/07 12:14:40;;;;;;;2.03;1.93;;;10.20;99.90;;;;;;5032431;28;20470;-65
2022/03/07 12:17:18;;;;;;;1.90;1.80;;;10.40;99.90;;;;;;5042632;28;20975;-74
2022/03/07 12:19:44;;;;;;;3.50;2.30;;;10.20;99.90;;;;;;5051697;28;20409;-66
2022/03/07 12:22:11;;;;;;;3.00;2.13;;;10.00;99.90;;;;;;5045479;28;20475;-65
2022/03/07 12:24:39;;;;;;;2.93;2.63;;;9.70;99.90;;;;;;5036513;28;21065;-71
2022/03/07 12:27:05;;;;;;;2.83;2.60;;;9.80;99.90;;;;;;5043536;28;20409;-65
2022/03/07 12:29:31;;;;;;;2.60;2.40;;;10.10;99.90;;;;;;5055223;28;20410;-73
2022/03/07 12:31:58;;;;;;;1.87;1.77;;;10.30;99.90;;;;;;5050799;28;20430;-72
2022/03/07 12:34:26;;;;;;;1.80;1.70;;;10.40;99.90;;;;;;5056195;28;20216;-74
2022/03/07 12:37:04;;;;;;;2.07;1.97;;;11.10;99.90;;;;;;5054574;28;20456;-65
2022/03/07 12:39:41;;;;;;;1.90;1.80;;;12.10;99.90;;;;;;5055139;28;20401;-73
2022/03/07 12:45:18;;;;;;;2.30;1.47;;;13.50;99.90;;;;;;5046613;28;20826;-66
2022/03/07 12:47:44;;;;;;;1.80;1.50;;;15.00;99.90;;;;;;5061451;28;20386;-72
2022/03/07 12:50:12;;;;;;;2.30;1.90;;;15.00;99.90;;;;;;5056954;28;20401;-73
2022/03/07 12:52:43;;;;;;;2.80;1.97;;;15.10;99.90;;;;;;5044280;28;20503;-66
2022/03/07 12:55:15;;;;;;;1.50;1.40;;;15.40;99.90;;;;;;5052859;28;20829;-72
2022/03/07 12:57:41;;;;;;;1.20;1.10;;;16.50;99.90;;;;;;5051795;28;20418;-70
2022/03/07 13:00:10;;;;;;;2.23;1.80;;;17.40;99.90;;;;;;5037061;28;20946;-66